Time;durP1;ratioP1;P1;durP2;ratioP2;P2;SDS_P1;SDS_P2;PMS_P1;PMS_P2;Temp;Humidity;BMP_temperature;BMP_pressure;BME280_temperature;BME280_humidity;BME280_pressure;Samples;Min_cycle;Max_cycle;Signal;HPM_P1;HPM_P2
2021/06/25 00:00:08;;;;;;;12.13;10.32;;;16.90;93.60;;;;;;5056830;28;20473;-68
2021/06/25 00:02:34;;;;;;;12.48;10.30;;;16.90;93.60;;;;;;5061636;28;20052;-68
2021/06/25 00:04:59;;;;;;;15.25;10.80;;;16.90;93.70;;;;;;5072196;28;20470;-68
2021/06/25 00:07:25;;;;;;;11.93;9.85;;;16.90;93.70;;;;;;5067968;28;20021;-68
2021/06/25 00:09:50;;;;;;;16.15;10.43;;;16.90;93.60;;;;;;5054629;28;20021;-68
2021/06/25 00:12:16;;;;;;;13.50;11.10;;;16.90;93.70;;;;;;5066453;28;20025;-68
2021/06/25 00:14:42;;;;;;;12.52;10.40;;;16.80;93.80;;;;;;5072388;28;20370;-68
2021/06/25 00:17:08;;;;;;;13.93;9.95;;;16.80;93.80;;;;;;5068287;28;20078;-68
2021/06/25 00:19:34;;;;;;;13.45;10.48;;;16.90;93.80;;;;;;5064655;28;20028;-68
2021/06/25 00:22:00;;;;;;;12.02;9.60;;;16.80;93.70;;;;;;5071221;28;20024;-68
2021/06/25 00:24:25;;;;;;;14.02;10.30;;;16.80;93.80;;;;;;5055754;28;20082;-68
2021/06/25 00:26:51;;;;;;;12.98;10.50;;;16.80;94.00;;;;;;5073954;28;20046;-68
2021/06/25 00:29:18;;;;;;;16.73;10.77;;;16.70;93.70;;;;;;5062852;28;20105;-68
2021/06/25 00:31:43;;;;;;;12.65;9.65;;;16.70;93.80;;;;;;5063725;28;20039;-68
2021/06/25 00:34:09;;;;;;;13.98;10.15;;;16.70;93.90;;;;;;5056918;28;20462;-68
2021/06/25 00:36:34;;;;;;;11.88;9.88;;;16.70;94.00;;;;;;5059129;28;20029;-67
2021/06/25 00:39:00;;;;;;;15.70;11.27;;;16.60;94.00;;;;;;5057001;28;20033;-68
2021/06/25 00:41:26;;;;;;;10.95;9.40;;;16.70;94.10;;;;;;5067890;28;20037;-68
2021/06/25 00:43:51;;;;;;;12.82;10.23;;;16.70;94.20;;;;;;5068327;28;20044;-68
2021/06/25 00:46:17;;;;;;;12.55;10.48;;;16.70;94.20;;;;;;5059469;28;20106;-68
2021/06/25 00:48:43;;;;;;;14.02;9.60;;;16.70;94.20;;;;;;5071969;28;20021;-68
2021/06/25 00:51:08;;;;;;;17.02;10.60;;;16.70;94.20;;;;;;5069756;28;20028;-68
2021/06/25 00:53:34;;;;;;;12.38;10.10;;;16.70;94.20;;;;;;5060583;28;20106;-68
2021/06/25 00:56:00;;;;;;;12.98;10.25;;;16.60;94.20;;;;;;5061269;28;20024;-68
2021/06/25 00:58:25;;;;;;;11.88;10.38;;;16.60;94.30;;;;;;5056423;28;20021;-68
2021/06/25 01:00:52;;;;;;;12.23;9.18;;;16.60;94.40;;;;;;5069546;28;20089;-68
2021/06/25 01:03:17;;;;;;;14.70;10.43;;;16.60;94.40;;;;;;5071365;28;20128;-68
2021/06/25 01:05:43;;;;;;;13.13;10.30;;;16.60;94.50;;;;;;5067375;28;20046;-68
2021/06/25 01:08:10;;;;;;;15.65;10.73;;;16.70;94.50;;;;;;5071191;28;20033;-68
2021/06/25 01:10:37;;;;;;;13.52;9.65;;;16.60;94.40;;;;;;5069652;28;20048;-68
2021/06/25 01:13:05;;;;;;;11.10;9.93;;;16.60;94.50;;;;;;5071629;28;20437;-68
2021/06/25 01:15:31;;;;;;;12.88;9.88;;;16.60;94.60;;;;;;5068303;28;20056;-67
2021/06/25 01:17:56;;;;;;;10.15;7.35;;;16.60;94.70;;;;;;5059161;28;20080;-68
2021/06/25 01:20:29;;;;;;;9.57;6.95;;;16.60;94.80;;;;;;5061384;28;20021;-68
2021/06/25 01:22:55;;;;;;;9.35;6.53;;;16.60;94.70;;;;;;5062651;28;20033;-67
2021/06/25 01:25:27;;;;;;;9.60;8.52;;;16.60;94.60;;;;;;5056599;28;20032;-68
2021/06/25 01:27:54;;;;;;;;;;;16.50;94.50;;;;;;5067216;28;20024;-68
2021/06/25 01:30:25;;;;;;;12.85;7.93;;;16.40;94.40;;;;;;5062475;28;19908;-68
2021/06/25 01:32:52;;;;;;;9.88;8.23;;;16.40;94.70;;;;;;5069364;28;20086;-68
2021/06/25 01:35:19;;;;;;;11.85;8.55;;;16.30;94.70;;;;;;5058297;28;20104;-67
2021/06/25 01:37:45;;;;;;;14.77;10.25;;;16.30;94.80;;;;;;5060040;28;20085;-67
2021/06/25 01:40:14;;;;;;;14.77;10.23;;;16.30;95.00;;;;;;5061285;28;20051;-68
2021/06/25 01:42:41;;;;;;;11.07;8.60;;;16.30;95.10;;;;;;5065022;28;20451;-68
2021/06/25 01:45:16;;;;;;;12.25;7.93;;;16.30;95.10;;;;;;5065046;28;20032;-68
2021/06/25 01:47:43;;;;;;;9.25;7.35;;;16.30;95.20;;;;;;5063265;28;20108;-68
2021/06/25 01:50:11;;;;;;;9.60;7.28;;;16.30;95.20;;;;;;5061083;28;20473;-68
2021/06/25 01:52:47;;;;;;;8.90;6.55;;;16.30;95.30;;;;;;5068137;28;20036;-68
2021/06/25 01:55:13;;;;;;;7.90;6.13;;;16.30;95.50;;;;;;5066080;28;20021;-67
2021/06/25 01:57:39;;;;;;;10.15;6.53;;;16.30;95.50;;;;;;5057594;28;20021;-68
2021/06/25 02:00:06;;;;;;;6.95;5.68;;;16.30;95.50;;;;;;5065085;28;20095;-68
2021/06/25 02:02:32;;;;;;;5.47;4.80;;;16.40;95.60;;;;;;5070068;28;20044;-68
2021/06/25 02:04:58;;;;;;;6.18;4.60;;;16.40;95.40;;;;;;5061805;28;20024;-68
2021/06/25 02:07:23;;;;;;;5.65;4.25;;;16.30;95.60;;;;;;5065822;28;20021;-68
2021/06/25 02:09:49;;;;;;;5.20;4.30;;;16.30;95.40;;;;;;5063375;28;20025;-68
2021/06/25 02:12:14;;;;;;;6.10;4.00;;;16.30;95.30;;;;;;5051776;28;20029;-68
2021/06/25 02:14:40;;;;;;;4.82;4.30;;;16.30;95.40;;;;;;5066753;28;20033;-68
2021/06/25 02:17:06;;;;;;;5.07;4.07;;;16.30;95.40;;;;;;5068994;28;20029;-68
2021/06/25 02:19:31;;;;;;;5.07;4.40;;;16.30;95.40;;;;;;5067921;28;20052;-68
2021/06/25 02:21:57;;;;;;;4.45;4.05;;;16.30;95.50;;;;;;5069053;28;20028;-68
2021/06/25 02:24:22;;;;;;;4.50;4.10;;;16.30;95.40;;;;;;5059553;28;20147;-68
2021/06/25 02:26:48;;;;;;;6.55;4.47;;;16.30;95.40;;;;;;5049075;28;20083;-68
2021/06/25 02:29:14;;;;;;;4.40;3.85;;;16.30;95.50;;;;;;5064494;28;20642;-68
2021/06/25 02:31:39;;;;;;;5.30;4.53;;;16.30;95.50;;;;;;5068775;28;20029;-68
2021/06/25 02:34:05;;;;;;;4.88;3.92;;;16.30;95.50;;;;;;5068453;28;20503;-68
2021/06/25 02:36:30;;;;;;;4.43;3.95;;;16.30;95.40;;;;;;5058121;28;20017;-68
2021/06/25 02:38:56;;;;;;;4.45;3.75;;;16.30;95.50;;;;;;5063322;28;20676;-68
2021/06/25 02:41:21;;;;;;;6.13;4.28;;;16.30;95.50;;;;;;5067963;28;20027;-69
2021/06/25 02:43:48;;;;;;;7.90;4.95;;;16.30;95.60;;;;;;5068529;28;20052;-68
2021/06/25 02:46:14;;;;;;;5.15;4.30;;;16.30;95.60;;;;;;5066626;28;20469;-68
2021/06/25 02:48:40;;;;;;;5.05;4.55;;;16.30;95.50;;;;;;5058916;28;20029;-68
2021/06/25 02:51:05;;;;;;;5.80;4.70;;;16.30;95.60;;;;;;5069164;28;20020;-69
2021/06/25 02:55:59;;;;;;;5.95;4.60;;;16.30;95.60;;;;;;5014390;28;20457;-68
2021/06/25 02:58:25;;;;;;;5.32;4.63;;;16.30;95.60;;;;;;5006036;28;20033;-68
2021/06/25 03:00:52;;;;;;;6.22;4.80;;;16.20;95.60;;;;;;5013424;28;20104;-68
2021/06/25 03:03:18;;;;;;;5.95;5.00;;;16.20;95.60;;;;;;5012800;28;20041;-68
2021/06/25 03:05:44;;;;;;;6.43;4.97;;;16.30;95.80;;;;;;5013416;28;20125;-68
2021/06/25 03:08:10;;;;;;;5.90;5.18;;;16.30;95.80;;;;;;5010374;28;20113;-68
2021/06/25 03:10:35;;;;;;;7.22;5.50;;;16.30;95.80;;;;;;5014880;28;20084;-68
2021/06/25 03:13:01;;;;;;;7.80;6.10;;;16.30;95.70;;;;;;5013423;28;20038;-68
2021/06/25 03:15:27;;;;;;;5.55;5.03;;;16.30;95.70;;;;;;5020308;28;20118;-68
2021/06/25 03:17:52;;;;;;;6.38;5.00;;;16.30;95.70;;;;;;5019047;28;20485;-68
2021/06/25 03:20:18;;;;;;;4.43;3.45;;;16.20;95.70;;;;;;5033419;28;20022;-68
2021/06/25 03:22:44;;;;;;;4.68;3.25;;;16.20;95.70;;;;;;5020559;28;20061;-68
2021/06/25 03:25:10;;;;;;;3.55;3.20;;;16.10;95.50;;;;;;4995876;28;20136;-68
2021/06/25 03:27:36;;;;;;;3.72;3.20;;;16.10;95.70;;;;;;5013602;28;20022;-68
2021/06/25 03:30:04;;;;;;;4.63;3.10;;;16.10;95.80;;;;;;5017929;28;20029;-68
2021/06/25 03:32:30;;;;;;;3.58;3.00;;;16.00;95.90;;;;;;5014567;28;20096;-68
2021/06/25 03:34:55;;;;;;;2.75;2.55;;;16.10;95.90;;;;;;5014757;28;20667;-68
2021/06/25 03:37:21;;;;;;;3.22;2.42;;;16.00;95.90;;;;;;5015522;28;20018;-69
2021/06/25 03:39:47;;;;;;;2.80;2.10;;;16.00;96.00;;;;;;5004024;28;20079;-68
2021/06/25 03:42:12;;;;;;;2.58;1.73;;;16.00;96.10;;;;;;5015512;28;20021;-69
2021/06/25 03:44:38;;;;;;;2.00;1.90;;;16.00;96.00;;;;;;5015617;28;20137;-69
2021/06/25 03:47:04;;;;;;;1.75;1.65;;;16.00;96.10;;;;;;5014923;28;20037;-69
2021/06/25 03:49:30;;;;;;;1.92;1.75;;;15.90;95.90;;;;;;5012906;28;20077;-70
2021/06/25 03:51:56;;;;;;;3.60;1.85;;;15.90;96.00;;;;;;5012978;28;20058;-70
2021/06/25 03:54:22;;;;;;;2.20;2.00;;;15.80;96.10;;;;;;5012557;28;20026;-69
2021/06/25 03:56:47;;;;;;;1.83;1.73;;;15.90;96.10;;;;;;5006617;28;20029;-68
2021/06/25 03:59:13;;;;;;;2.17;2.03;;;15.80;96.00;;;;;;5016845;28;20064;-68
2021/06/25 04:01:38;;;;;;;2.55;2.15;;;15.80;96.10;;;;;;5024656;28;20478;-68
2021/06/25 04:04:04;;;;;;;2.17;1.90;;;15.80;96.20;;;;;;5013289;28;20062;-69
2021/06/25 04:06:29;;;;;;;2.13;2.03;;;15.80;96.10;;;;;;5031684;28;20080;-68
2021/06/25 04:08:55;;;;;;;2.28;2.08;;;15.80;96.20;;;;;;5017675;28;20029;-68
2021/06/25 04:11:21;;;;;;;2.10;2.00;;;15.80;96.20;;;;;;5018769;28;20038;-68
2021/06/25 04:13:47;;;;;;;2.45;2.25;;;15.80;96.30;;;;;;5027203;28;20434;-68
2021/06/25 04:16:13;;;;;;;2.88;2.17;;;15.80;96.30;;;;;;5011970;28;20049;-68
2021/06/25 04:18:39;;;;;;;2.65;2.45;;;15.80;96.30;;;;;;5020958;28;20053;-69
2021/06/25 04:21:05;;;;;;;3.30;3.00;;;15.80;96.30;;;;;;5019828;28;20482;-69
2021/06/25 04:23:31;;;;;;;3.97;3.58;;;15.80;96.20;;;;;;5015926;28;20095;-68
2021/06/25 04:25:57;;;;;;;5.22;4.72;;;15.80;96.20;;;;;;5011396;28;20436;-68
2021/06/25 04:28:23;;;;;;;6.53;5.75;;;15.80;96.30;;;;;;5011855;28;20030;-68
2021/06/25 04:30:49;;;;;;;7.35;5.22;;;15.80;96.30;;;;;;5011645;28;20084;-68
2021/06/25 04:33:15;;;;;;;7.65;5.90;;;15.80;96.30;;;;;;5014874;28;20370;-69
2021/06/25 04:35:42;;;;;;;8.30;6.55;;;15.80;96.30;;;;;;5012287;28;20087;-68
2021/06/25 04:38:08;;;;;;;9.07;6.28;;;15.80;96.30;;;;;;5023367;28;20021;-69
2021/06/25 04:40:37;;;;;;;8.43;6.15;;;15.80;96.30;;;;;;5004983;28;20025;-67
2021/06/25 04:43:03;;;;;;;13.50;9.52;;;15.80;96.30;;;;;;5030570;28;20029;-69
2021/06/25 04:45:28;;;;;;;9.38;6.78;;;15.90;96.30;;;;;;5015073;28;20026;-68
2021/06/25 04:47:54;;;;;;;9.60;7.05;;;15.80;96.30;;;;;;5012792;28;20060;-67
2021/06/25 04:50:20;;;;;;;9.27;7.00;;;15.80;96.20;;;;;;5011424;28;20067;-68
2021/06/25 04:52:45;;;;;;;8.60;6.45;;;15.80;96.20;;;;;;5011203;28;20482;-69
2021/06/25 04:55:11;;;;;;;7.20;6.40;;;15.80;96.30;;;;;;5010538;28;20111;-68
2021/06/25 04:57:37;;;;;;;9.10;6.15;;;15.80;96.30;;;;;;5004808;28;20024;-68
2021/06/25 05:00:06;;;;;;;10.27;7.30;;;15.80;96.40;;;;;;5004658;28;20022;-68
2021/06/25 05:02:31;;;;;;;9.55;7.10;;;15.80;96.40;;;;;;5020551;28;20025;-68
2021/06/25 05:04:57;;;;;;;8.55;7.05;;;15.80;96.30;;;;;;5010729;28;20017;-68
2021/06/25 05:07:22;;;;;;;10.15;7.68;;;15.80;96.30;;;;;;5023387;28;20029;-68
2021/06/25 05:09:48;;;;;;;9.95;7.13;;;15.80;96.30;;;;;;5020657;28;20030;-69
2021/06/25 05:12:13;;;;;;;12.02;7.45;;;15.80;96.30;;;;;;5027010;28;20410;-69
2021/06/25 05:14:39;;;;;;;8.95;7.50;;;15.80;96.40;;;;;;5020735;28;20037;-67
2021/06/25 05:17:05;;;;;;;8.93;6.78;;;15.80;96.50;;;;;;5020480;28;20378;-68
2021/06/25 05:19:30;;;;;;;9.45;6.65;;;15.70;96.50;;;;;;5010858;28;20033;-69
2021/06/25 05:21:56;;;;;;;8.77;6.82;;;15.80;96.50;;;;;;5028058;28;20060;-69
2021/06/25 05:24:23;;;;;;;7.38;5.88;;;15.80;96.50;;;;;;4994053;28;20026;-68
2021/06/25 05:26:48;;;;;;;7.45;5.75;;;15.80;96.60;;;;;;5002465;28;20030;-68
2021/06/25 05:29:14;;;;;;;7.13;5.22;;;15.90;96.60;;;;;;5006794;28;20045;-68
2021/06/25 05:31:39;;;;;;;5.22;4.38;;;15.90;96.60;;;;;;5013430;28;20478;-68
2021/06/25 05:34:05;;;;;;;5.13;3.60;;;15.90;96.60;;;;;;5012987;28;20036;-68
2021/06/25 05:36:30;;;;;;;4.10;3.58;;;15.90;96.60;;;;;;5029956;28;20037;-68
2021/06/25 05:38:56;;;;;;;3.25;2.97;;;16.00;96.50;;;;;;5025047;28;20492;-69
2021/06/25 05:41:22;;;;;;;2.63;2.42;;;16.00;96.50;;;;;;5015800;28;20030;-69
2021/06/25 05:43:47;;;;;;;3.28;2.97;;;16.00;96.50;;;;;;5011159;28;20096;-69
2021/06/25 05:46:13;;;;;;;3.97;3.28;;;16.10;96.60;;;;;;5009357;28;20044;-70
2021/06/25 05:48:39;;;;;;;3.20;2.90;;;16.10;96.60;;;;;;5011610;28;20029;-68
2021/06/25 05:51:06;;;;;;;5.75;3.22;;;16.10;96.50;;;;;;4993876;28;20037;-68
2021/06/25 05:53:32;;;;;;;4.63;2.85;;;16.20;96.40;;;;;;5007691;28;20033;-68
2021/06/25 05:55:58;;;;;;;5.28;3.20;;;16.20;96.30;;;;;;5003817;28;20456;-68
2021/06/25 05:58:24;;;;;;;4.63;3.63;;;16.20;96.20;;;;;;4995155;28;20060;-67
2021/06/25 06:00:50;;;;;;;3.88;3.50;;;16.20;96.20;;;;;;5009292;28;20030;-68
2021/06/25 06:03:15;;;;;;;3.60;2.85;;;16.20;96.20;;;;;;4992821;28;20069;-69
2021/06/25 06:05:42;;;;;;;3.58;3.28;;;16.20;96.20;;;;;;5007580;28;20386;-67
2021/06/25 06:08:08;;;;;;;3.22;2.80;;;16.20;96.20;;;;;;5009940;28;20033;-67
2021/06/25 06:10:34;;;;;;;3.33;3.00;;;16.20;96.20;;;;;;5008891;28;20401;-67
2021/06/25 06:13:01;;;;;;;4.13;2.70;;;16.20;96.30;;;;;;5012188;28;20182;-68
2021/06/25 06:15:27;;;;;;;3.63;3.08;;;16.20;96.30;;;;;;5016262;28;21007;-68
2021/06/25 06:17:53;;;;;;;4.30;2.97;;;16.30;96.40;;;;;;5010092;28;20072;-68
2021/06/25 06:20:22;;;;;;;3.10;2.80;;;16.30;96.40;;;;;;5010301;28;20030;-67
2021/06/25 06:33:51;;;;;;;2.85;2.65;;;16.30;96.20;;;;;;5020041;28;20099;-67
2021/06/25 06:38:54;;;;;;;4.28;2.50;;;16.30;96.20;;;;;;5022317;28;20041;-68
2021/06/25 06:41:20;;;;;;;3.78;2.03;;;16.20;96.20;;;;;;5025356;28;20163;-68
2021/06/25 06:43:47;;;;;;;2.30;2.20;;;16.20;96.20;;;;;;5015078;28;20030;-69
2021/06/25 06:46:14;;;;;;;2.42;2.22;;;16.20;96.30;;;;;;5012975;28;20022;-69
2021/06/25 06:48:45;;;;;;;2.55;1.98;;;16.30;96.40;;;;;;5013924;28;20470;-69
2021/06/25 06:51:12;;;;;;;1.85;1.75;;;16.30;96.50;;;;;;5019181;28;20469;-67
2021/06/25 06:53:42;;;;;;;2.10;2.00;;;16.30;96.30;;;;;;5032828;28;20025;-68
2021/06/25 06:56:10;;;;;;;2.00;1.90;;;16.30;96.40;;;;;;5006565;28;20026;-68
2021/06/25 06:58:35;;;;;;;2.10;1.90;;;16.30;96.50;;;;;;5018673;28;20022;-67
2021/06/25 07:01:01;;;;;;;1.90;1.80;;;16.40;96.50;;;;;;5008641;28;20048;-68
2021/06/25 07:03:26;;;;;;;1.80;1.70;;;16.40;96.60;;;;;;5013495;28;20026;-68
2021/06/25 07:05:52;;;;;;;1.48;1.38;;;16.50;96.60;;;;;;5012683;28;20042;-68
2021/06/25 07:08:18;;;;;;;1.55;1.45;;;16.50;96.60;;;;;;5016498;28;20520;-67
2021/06/25 07:10:43;;;;;;;1.58;1.48;;;16.50;96.60;;;;;;5019204;28;20058;-69
2021/06/25 07:13:09;;;;;;;1.40;1.30;;;16.60;96.60;;;;;;5013102;28;20444;-70
2021/06/25 07:15:36;;;;;;;2.35;1.30;;;16.60;96.80;;;;;;5012283;28;20034;-69
2021/06/25 07:18:02;;;;;;;1.45;1.35;;;16.60;96.30;;;;;;5012590;28;20022;-66
2021/06/25 07:20:28;;;;;;;1.60;1.50;;;16.60;96.30;;;;;;5005415;28;20461;-68
2021/06/25 07:22:54;;;;;;;2.30;2.03;;;16.60;96.30;;;;;;4999169;28;20068;-70
2021/06/25 07:25:19;;;;;;;2.30;2.10;;;16.60;96.40;;;;;;5012197;28;20394;-68
2021/06/25 07:27:45;;;;;;;3.55;2.33;;;16.60;96.50;;;;;;5012600;28;20029;-69
2021/06/25 07:30:12;;;;;;;2.85;2.50;;;16.60;96.50;;;;;;5012214;28;20026;-68
2021/06/25 07:32:38;;;;;;;10.05;4.95;;;16.70;96.50;;;;;;4994906;28;20032;-67
2021/06/25 07:35:04;;;;;;;4.20;3.80;;;16.70;96.50;;;;;;5011835;28;20113;-69
2021/06/25 07:37:30;;;;;;;5.03;3.42;;;16.80;96.50;;;;;;5012964;28;20044;-68
2021/06/25 07:39:56;;;;;;;2.45;2.28;;;16.90;96.60;;;;;;5012624;28;20554;-69
2021/06/25 07:42:22;;;;;;;3.72;2.22;;;17.00;96.60;;;;;;5011421;28;20021;-68
2021/06/25 07:44:50;;;;;;;2.72;2.53;;;17.00;96.40;;;;;;5010617;28;20029;-69
2021/06/25 07:47:16;;;;;;;4.13;3.72;;;17.00;96.20;;;;;;5012814;28;20052;-68
2021/06/25 07:49:41;;;;;;;3.03;2.50;;;17.00;96.10;;;;;;5028192;28;20022;-68
2021/06/25 07:52:07;;;;;;;3.60;2.78;;;17.00;96.10;;;;;;5032505;28;20029;-68
2021/06/25 07:54:33;;;;;;;2.80;2.60;;;17.00;96.20;;;;;;5013469;28;20491;-69
2021/06/25 07:56:58;;;;;;;3.95;3.28;;;17.00;96.30;;;;;;5011634;28;20656;-68
2021/06/25 07:59:24;;;;;;;3.30;3.00;;;17.10;96.20;;;;;;5025718;28;20029;-68
2021/06/25 08:01:49;;;;;;;3.70;3.13;;;17.10;96.30;;;;;;5024608;28;20022;-68
2021/06/25 08:04:15;;;;;;;3.22;2.92;;;17.10;96.30;;;;;;4994960;28;20030;-68
2021/06/25 08:06:41;;;;;;;5.00;2.65;;;17.20;96.20;;;;;;5011450;28;20088;-68
2021/06/25 08:09:07;;;;;;;3.75;3.03;;;17.10;96.00;;;;;;5012616;28;20072;-68
2021/06/25 08:11:33;;;;;;;3.03;2.83;;;17.10;96.10;;;;;;4995039;28;20064;-68
2021/06/25 08:13:59;;;;;;;4.30;3.80;;;17.10;96.00;;;;;;5011976;28;20397;-68
2021/06/25 08:16:24;;;;;;;3.83;3.25;;;17.00;96.00;;;;;;5011016;28;20128;-68
2021/06/25 08:18:56;;;;;;;4.20;3.10;;;17.00;96.00;;;;;;5010672;28;20026;-68
2021/06/25 08:21:25;;;;;;;3.35;3.05;;;17.00;96.00;;;;;;5007623;28;20033;-68
2021/06/25 08:23:51;;;;;;;3.83;3.10;;;17.00;96.10;;;;;;4999052;28;20021;-68
2021/06/25 08:26:17;;;;;;;2.60;2.42;;;17.10;96.10;;;;;;5028189;28;20425;-68
2021/06/25 08:28:43;;;;;;;3.08;2.72;;;17.20;96.10;;;;;;4994815;28;20037;-68
2021/06/25 08:31:08;;;;;;;2.72;2.50;;;17.30;96.10;;;;;;5012012;28;20030;-68
2021/06/25 08:33:34;;;;;;;2.90;2.60;;;17.40;96.00;;;;;;5011976;28;20038;-67
2021/06/25 08:35:59;;;;;;;2.70;2.50;;;17.50;95.90;;;;;;5011400;28;20018;-69
2021/06/25 08:38:25;;;;;;;2.95;2.70;;;17.70;96.00;;;;;;5011464;28;20037;-68
2021/06/25 08:40:51;;;;;;;4.00;3.70;;;17.70;95.70;;;;;;5012137;28;20052;-69
2021/06/25 08:43:16;;;;;;;4.60;3.67;;;17.80;95.60;;;;;;5011215;28;20033;-68
2021/06/25 08:45:43;;;;;;;3.92;3.53;;;17.80;95.50;;;;;;5010993;28;20061;-69
2021/06/25 08:48:09;;;;;;;3.92;3.45;;;18.00;95.60;;;;;;5011429;28;20084;-68
2021/06/25 08:50:39;;;;;;;7.32;3.80;;;18.10;95.50;;;;;;5011739;28;20033;-68
2021/06/25 08:53:06;;;;;;;4.75;4.20;;;18.30;95.60;;;;;;5011575;28;20430;-68
2021/06/25 08:55:32;;;;;;;4.75;4.25;;;18.40;95.50;;;;;;5014902;28;20363;-68
2021/06/25 08:57:57;;;;;;;7.00;4.32;;;18.60;95.40;;;;;;5011540;28;20033;-68
2021/06/25 09:00:23;;;;;;;4.55;4.15;;;18.60;95.40;;;;;;5011483;28;20022;-68
2021/06/25 09:02:49;;;;;;;6.60;4.38;;;18.70;95.30;;;;;;5011326;28;20030;-68
2021/06/25 09:05:26;;;;;;;4.93;4.40;;;18.70;95.20;;;;;;5015327;28;20022;-68
2021/06/25 09:07:54;;;;;;;5.85;5.25;;;18.60;95.20;;;;;;5016424;28;20022;-69
2021/06/25 09:10:31;;;;;;;6.85;5.22;;;18.60;95.10;;;;;;5011883;28;20030;-69
2021/06/25 09:13:17;;;;;;;6.05;5.20;;;18.50;95.00;;;;;;5010489;28;20058;-68
2021/06/25 09:15:43;;;;;;;6.93;5.50;;;18.50;94.90;;;;;;5010388;28;20130;-68
2021/06/25 09:18:11;;;;;;;7.80;5.88;;;18.50;95.00;;;;;;5010959;28;20699;-68
2021/06/25 09:20:50;;;;;;;7.30;6.43;;;18.40;95.00;;;;;;4996685;28;20026;-68
2021/06/25 09:23:16;;;;;;;6.72;5.97;;;18.50;95.00;;;;;;4991602;28;20022;-69
2021/06/25 09:26:06;;;;;;;10.30;6.28;;;18.50;95.00;;;;;;5010322;28;20052;-68
2021/06/25 09:28:41;;;;;;;6.15;5.43;;;18.50;95.10;;;;;;5011463;28;20041;-68
2021/06/25 09:31:28;;;;;;;6.32;4.93;;;18.60;95.10;;;;;;5009683;28;20076;-68
2021/06/25 09:33:58;;;;;;;5.97;4.43;;;18.60;94.80;;;;;;5011255;28;20045;-68
2021/06/25 09:36:33;;;;;;;6.40;4.53;;;18.70;94.80;;;;;;4992105;28;20291;-68
2021/06/25 09:39:13;;;;;;;4.80;4.25;;;18.80;94.70;;;;;;5010944;28;20022;-68
2021/06/25 09:41:41;;;;;;;4.60;4.15;;;18.90;94.60;;;;;;5002083;28;20029;-68
2021/06/25 09:44:16;;;;;;;7.03;4.30;;;19.00;94.60;;;;;;5006551;28;20033;-68
2021/06/25 09:46:43;;;;;;;4.70;4.07;;;19.00;94.20;;;;;;4997348;28;20522;-68
2021/06/25 09:49:11;;;;;;;7.93;4.60;;;19.10;94.20;;;;;;4991470;28;20037;-68
2021/06/25 09:51:58;;;;;;;5.97;4.47;;;19.20;94.20;;;;;;5007271;28;20026;-68
2021/06/25 09:54:25;;;;;;;4.95;4.40;;;19.20;93.90;;;;;;5010297;28;20128;-69
2021/06/25 09:57:13;;;;;;;4.63;4.22;;;19.20;93.70;;;;;;5009389;28;20501;-68
2021/06/25 10:02:31;;;;;;;7.85;5.25;;;19.00;93.50;;;;;;5010833;28;20084;-68
2021/06/25 10:05:11;;;;;;;9.80;4.93;;;19.00;93.40;;;;;;5010759;28;20022;-68
2021/06/25 10:07:37;;;;;;;4.30;3.78;;;18.90;93.10;;;;;;5014897;28;20022;-68
2021/06/25 10:10:11;;;;;;;8.95;4.30;;;18.70;93.20;;;;;;5015181;28;20036;-68
2021/06/25 10:12:43;;;;;;;45.50;6.28;;;18.70;93.40;;;;;;5013936;28;20021;-68
2021/06/25 10:15:10;;;;;;;3.63;3.33;;;18.60;93.30;;;;;;4995853;28;20026;-68
2021/06/25 10:17:36;;;;;;;5.25;4.10;;;18.50;93.30;;;;;;5014008;28;20121;-68
2021/06/25 10:20:09;;;;;;;4.90;3.80;;;18.40;93.20;;;;;;5015002;28;20500;-68
2021/06/25 10:22:36;;;;;;;5.78;4.25;;;18.30;93.20;;;;;;5033417;28;20036;-68
2021/06/25 10:25:06;;;;;;;5.18;4.10;;;18.20;93.30;;;;;;5028379;28;20025;-68
2021/06/25 10:27:32;;;;;;;5.50;4.57;;;18.10;93.40;;;;;;5025416;28;20029;-67
2021/06/25 10:29:59;;;;;;;5.43;4.40;;;18.00;93.40;;;;;;5029840;28;20449;-68
2021/06/25 10:32:24;;;;;;;5.40;4.90;;;18.00;93.60;;;;;;5033979;28;20030;-68
2021/06/25 10:34:50;;;;;;;6.45;5.30;;;18.00;93.70;;;;;;5006228;28;20038;-68
2021/06/25 10:37:25;;;;;;;8.50;5.75;;;18.00;93.60;;;;;;5013973;28;20383;-68
2021/06/25 10:39:51;;;;;;;9.15;6.10;;;18.00;93.60;;;;;;5014455;28;20026;-68
2021/06/25 10:42:17;;;;;;;7.75;6.47;;;18.00;93.60;;;;;;4996020;28;20417;-68
2021/06/25 10:44:54;;;;;;;7.10;6.32;;;18.00;93.70;;;;;;5002595;28;20026;-69
2021/06/25 10:47:26;;;;;;;8.43;7.43;;;18.10;94.00;;;;;;5010870;28;20057;-68
2021/06/25 10:50:01;;;;;;;10.70;8.48;;;18.20;94.00;;;;;;5013803;28;20030;-68
2021/06/25 10:52:28;;;;;;;8.75;7.72;;;18.30;94.00;;;;;;5013688;28;20050;-69
2021/06/25 10:55:10;;;;;;;9.80;7.95;;;18.40;93.90;;;;;;5013079;28;20060;-69
2021/06/25 10:57:54;;;;;;;9.18;7.78;;;18.50;93.70;;;;;;5013248;28;20061;-68
2021/06/25 11:00:52;;;;;;;10.23;7.75;;;18.50;93.60;;;;;;5013980;28;20050;-68
2021/06/25 11:03:43;;;;;;;8.90;7.95;;;18.50;93.60;;;;;;5013798;28;20029;-69
2021/06/25 11:06:49;;;;;;;9.70;8.05;;;18.50;93.70;;;;;;4995192;28;20098;-68
2021/06/25 11:09:14;;;;;;;14.20;9.27;;;18.60;93.60;;;;;;4993414;28;20042;-69
2021/06/25 11:11:40;;;;;;;12.43;7.93;;;18.60;93.70;;;;;;5022322;28;20036;-68
2021/06/25 11:14:24;;;;;;;10.98;7.60;;;18.80;93.80;;;;;;5016955;28;20502;-69
2021/06/25 11:16:49;;;;;;;9.75;7.60;;;18.80;93.30;;;;;;5011624;28;20022;-68
2021/06/25 11:19:36;;;;;;;7.45;6.75;;;19.00;93.50;;;;;;5013988;28;20022;-69
2021/06/25 11:22:01;;;;;;;7.85;6.60;;;19.10;93.50;;;;;;4995166;28;20026;-69
2021/06/25 11:24:46;;;;;;;8.77;6.15;;;19.20;93.30;;;;;;5013950;28;20036;-68
2021/06/25 11:27:12;;;;;;;5.85;5.32;;;19.30;93.00;;;;;;4993584;28;20022;-68
2021/06/25 11:29:45;;;;;;;6.55;5.50;;;19.50;93.20;;;;;;5007281;28;20024;-68
2021/06/25 11:32:12;;;;;;;10.00;5.60;;;19.70;93.30;;;;;;5013010;28;20060;-68
2021/06/25 11:34:37;;;;;;;5.60;5.07;;;20.00;93.30;;;;;;5028855;28;20083;-68
2021/06/25 11:37:03;;;;;;;6.00;5.40;;;20.20;92.70;;;;;;5027442;28;20022;-69
2021/06/25 11:39:36;;;;;;;5.43;4.93;;;20.40;92.60;;;;;;4995376;28;20140;-68
2021/06/25 11:42:10;;;;;;;8.00;5.32;;;20.60;92.10;;;;;;5019897;28;20022;-68
2021/06/25 11:44:44;;;;;;;5.78;4.97;;;20.80;92.30;;;;;;5005068;28;20033;-69
2021/06/25 11:47:20;;;;;;;5.85;5.30;;;21.00;92.30;;;;;;5005392;28;20017;-68
2021/06/25 11:50:00;;;;;;;7.50;4.85;;;21.20;91.80;;;;;;5033155;28;20505;-68
2021/06/25 11:52:35;;;;;;;9.18;4.57;;;21.30;91.60;;;;;;5025720;28;20475;-69
2021/06/25 11:55:06;;;;;;;7.78;4.68;;;21.30;90.90;;;;;;5012103;28;20025;-69
2021/06/25 11:57:35;;;;;;;6.20;5.60;;;21.20;91.00;;;;;;5029999;28;20349;-69
2021/06/25 12:00:21;;;;;;;6.10;5.47;;;21.20;90.90;;;;;;5017581;28;20109;-68
2021/06/25 12:02:59;;;;;;;6.47;5.88;;;21.20;91.00;;;;;;5018427;28;20025;-69
2021/06/25 12:05:27;;;;;;;8.88;6.93;;;21.10;90.90;;;;;;5031931;28;20071;-68
2021/06/25 12:08:22;;;;;;;8.70;6.68;;;21.00;91.20;;;;;;5024766;28;20497;-69
2021/06/25 12:10:54;;;;;;;7.00;6.30;;;21.00;91.30;;;;;;4983430;28;20063;-68
2021/06/25 12:13:19;;;;;;;7.70;7.00;;;20.90;91.40;;;;;;5005664;28;20124;-68
2021/06/25 12:15:48;;;;;;;9.15;6.68;;;20.90;91.40;;;;;;5001569;28;20827;-68
2021/06/25 12:18:21;;;;;;;7.85;7.05;;;20.80;91.40;;;;;;4990871;28;20084;-68
2021/06/25 12:20:47;;;;;;;7.97;7.18;;;20.70;91.30;;;;;;5012618;28;20097;-68
2021/06/25 12:23:13;;;;;;;15.68;10.63;;;20.70;91.50;;;;;;5012502;28;20022;-68
2021/06/25 12:25:45;;;;;;;12.75;9.85;;;20.70;91.50;;;;;;5010663;28;20037;-68
2021/06/25 12:28:11;;;;;;;;;;;20.60;91.00;;;;;;5008309;28;20022;-67
2021/06/25 12:30:47;;;;;;;12.52;9.82;;;20.50;91.30;;;;;;5012217;28;20354;-68
2021/06/25 12:33:14;;;;;;;9.52;8.52;;;20.30;91.00;;;;;;5012030;28;20030;-68
2021/06/25 12:35:48;;;;;;;10.57;8.82;;;20.10;91.20;;;;;;5011510;28;20065;-67
2021/06/25 12:38:22;;;;;;;10.35;8.52;;;20.10;91.60;;;;;;5014005;28;20057;-67
2021/06/25 12:40:59;;;;;;;11.85;9.57;;;20.00;91.70;;;;;;4998505;28;20376;-67
2021/06/25 12:43:30;;;;;;;13.93;11.32;;;20.10;91.90;;;;;;5009672;28;20033;-67
2021/06/25 12:46:06;;;;;;;16.70;13.27;;;20.10;91.90;;;;;;5000936;28;20544;-67
2021/06/25 12:48:34;;;;;;;17.95;14.27;;;20.00;92.00;;;;;;5018248;28;20791;-67
2021/06/25 12:51:11;;;;;;;15.95;12.75;;;20.00;92.20;;;;;;5103822;27;20429;-67
2021/06/25 12:53:39;;;;;;;13.27;10.27;;;19.90;92.00;;;;;;5087789;28;20024;-68
2021/06/25 12:56:12;;;;;;;14.27;9.73;;;19.80;91.90;;;;;;5086538;28;20074;-67
2021/06/25 12:58:41;;;;;;;12.15;9.23;;;19.80;92.10;;;;;;5074397;28;20056;-68
2021/06/25 13:01:08;;;;;;;12.10;9.57;;;19.70;92.20;;;;;;5078266;28;20798;-67
2021/06/25 13:03:35;;;;;;;10.48;9.45;;;19.60;92.20;;;;;;5068143;28;20435;-68
2021/06/25 13:06:01;;;;;;;12.07;10.55;;;19.60;92.20;;;;;;5075476;28;20028;-67